Pescabona Dos — CNA4016 — position and weather

sailwx.info

Track history (hours):
 
Tides and Currents Weather Stations Pressure Air Temp Water Temp Dewpoint Dewpoint Depression Visibility Wind Speed Wind Dir Waves Ship Positions

Pescabona Dos

Last reported at 2017-Sep-04 02:58 UTC. Time now 2017-Sep-19 17:22 UTC.
Position N 34°45' W 006°48'.
Warning: this ship's position is 15 days out of date.

Length 28 m; draft 3.5 m.

Type: Fishing. MMSI: 242005100.

Date/timePositionNaut miles runAvg speedWind from/ knotsBaromVisibWave heightAir tempDewpointWater temp
2017-Sep-04 02:58N 34°45' W 006°48'  
2017-Aug-27 03:59N 35°00' W 007°02'5 2.8
2017-Aug-27 02:17N 34°59' W 006°56'2 0.2
2017-Aug-26 12:06N 34°58' W 006°54'0 3.3
2017-Aug-26 12:00N 34°58' W 006°54'5 3.1
2017-Aug-26 10:31N 34°60' W 006°59'0 2.8
2017-Aug-26 10:30N 34°60' W 006°59'1 3.0
2017-Aug-26 10:01N 35°00' W 007°01'5 2.6
2017-Aug-26 08:13N 34°56' W 007°03'1 3.0
2017-Aug-26 07:58N 34°55' W 007°03'0 0.2
2017-Aug-26 05:16N 34°56' W 007°03'5 2.4
2017-Aug-26 03:04N 35°00' W 006°60'1 2.9
2017-Aug-26 02:34N 34°60' W 006°58'0 2.9
2017-Aug-26 02:30N 34°60' W 006°58'2 3.0
2017-Aug-26 02:00N 34°59' W 006°57'4 0.9
2017-Aug-25 21:50N 35°00' W 007°01'1 3.0
2017-Aug-25 21:30N 35°00' W 007°02'1 3.0
2017-Aug-25 21:00N 34°59' W 007°03'2 3.0
2017-Aug-25 20:30N 34°57' W 007°04'2 0.6
2017-Aug-25 17:24N 34°56' W 007°03'1 3.0
2017-Aug-25 16:58N 34°57' W 007°04'3 2.9
2017-Aug-25 15:55N 34°60' W 007°03'1 3.0
2017-Aug-25 15:30N 35°00' W 007°01'2 2.8
2017-Aug-25 14:50N 34°60' W 006°59'2 3.0
2017-Aug-25 14:00N 34°59' W 006°56'2 3.2
2017-Aug-25 13:30N 34°58' W 006°55'  
Track history (hours):
 
Tides and Currents Weather Stations Pressure Air Temp Water Temp Dewpoint Dewpoint Depression Visibility Wind Speed Wind Dir Waves Ship Positions

Pescabona Dos

Last reported at 2017-Sep-04 02:58 UTC. Time now 2017-Sep-19 17:22 UTC.
Position N 34°45' W 006°48'.
Warning: this ship's position is 15 days out of date.

Length 28 m; draft 3.5 m.

Type: Fishing. MMSI: 242005100.

Date/timePositionNaut miles runAvg speedWind from/ knotsBaromVisibWave heightAir tempDewpointWater temp
2017-Sep-04 02:58N 34°45' W 006°48'  
2017-Aug-27 03:59N 35°00' W 007°02'5 2.8
2017-Aug-27 02:17N 34°59' W 006°56'2 0.2
2017-Aug-26 12:06N 34°58' W 006°54'0 3.3
2017-Aug-26 12:00N 34°58' W 006°54'5 3.1
2017-Aug-26 10:31N 34°60' W 006°59'0 2.8
2017-Aug-26 10:30N 34°60' W 006°59'1 3.0
2017-Aug-26 10:01N 35°00' W 007°01'5 2.6
2017-Aug-26 08:13N 34°56' W 007°03'1 3.0
2017-Aug-26 07:58N 34°55' W 007°03'0 0.2
2017-Aug-26 05:16N 34°56' W 007°03'5 2.4
2017-Aug-26 03:04N 35°00' W 006°60'1 2.9
2017-Aug-26 02:34N 34°60' W 006°58'0 2.9
2017-Aug-26 02:30N 34°60' W 006°58'2 3.0
2017-Aug-26 02:00N 34°59' W 006°57'4 0.9
2017-Aug-25 21:50N 35°00' W 007°01'1 3.0
2017-Aug-25 21:30N 35°00' W 007°02'1 3.0
2017-Aug-25 21:00N 34°59' W 007°03'2 3.0
2017-Aug-25 20:30N 34°57' W 007°04'2 0.6
2017-Aug-25 17:24N 34°56' W 007°03'1 3.0
2017-Aug-25 16:58N 34°57' W 007°04'3 2.9
2017-Aug-25 15:55N 34°60' W 007°03'1 3.0
2017-Aug-25 15:30N 35°00' W 007°01'2 2.8
2017-Aug-25 14:50N 34°60' W 006°59'2 3.0
2017-Aug-25 14:00N 34°59' W 006°56'2 3.2
2017-Aug-25 13:30N 34°58' W 006°55'  

Dump ship's entire track history